sensor_id;sensor_type;location;lat;lon;timestamp;P1;durP1;ratioP1;P2;durP2;ratioP2
58338;SDS011;68636;52.704;6.536;2023-08-06T00:00:20;19.67;;;10.15;;
58338;SDS011;68636;52.704;6.536;2023-08-06T00:02:46;22.50;;;10.60;;
58338;SDS011;68636;52.704;6.536;2023-08-06T00:05:11;22.13;;;10.45;;
58338;SDS011;68636;52.704;6.536;2023-08-06T00:07:37;21.25;;;10.73;;
58338;SDS011;68636;52.704;6.536;2023-08-06T00:10:03;23.02;;;10.20;;
58338;SDS011;68636;52.704;6.536;2023-08-06T00:12:29;19.88;;;9.60;;
58338;SDS011;68636;52.704;6.536;2023-08-06T00:14:55;21.13;;;10.30;;
58338;SDS011;68636;52.704;6.536;2023-08-06T00:17:20;19.63;;;10.50;;
58338;SDS011;68636;52.704;6.536;2023-08-06T00:19:46;24.95;;;10.75;;
58338;SDS011;68636;52.704;6.536;2023-08-06T00:22:12;20.48;;;10.05;;
58338;SDS011;68636;52.704;6.536;2023-08-06T00:24:37;22.40;;;10.07;;
58338;SDS011;68636;52.704;6.536;2023-08-06T00:27:03;19.25;;;10.23;;
58338;SDS011;68636;52.704;6.536;2023-08-06T00:29:29;20.13;;;9.75;;
58338;SDS011;68636;52.704;6.536;2023-08-06T00:31:55;20.65;;;9.63;;
58338;SDS011;68636;52.704;6.536;2023-08-06T00:34:20;20.48;;;9.75;;
58338;SDS011;68636;52.704;6.536;2023-08-06T00:36:46;22.98;;;10.10;;
58338;SDS011;68636;52.704;6.536;2023-08-06T00:39:12;21.98;;;10.88;;
58338;SDS011;68636;52.704;6.536;2023-08-06T00:41:38;22.52;;;9.90;;
58338;SDS011;68636;52.704;6.536;2023-08-06T00:44:03;22.30;;;9.57;;
58338;SDS011;68636;52.704;6.536;2023-08-06T00:46:29;20.00;;;9.93;;
58338;SDS011;68636;52.704;6.536;2023-08-06T00:51:22;18.00;;;9.00;;
58338;SDS011;68636;52.704;6.536;2023-08-06T00:53:49;22.42;;;9.85;;
58338;SDS011;68636;52.704;6.536;2023-08-06T00:56:15;23.13;;;10.73;;
58338;SDS011;68636;52.704;6.536;2023-08-06T00:58:41;19.40;;;10.25;;
58338;SDS011;68636;52.704;6.536;2023-08-06T01:01:07;21.73;;;10.43;;
58338;SDS011;68636;52.704;6.536;2023-08-06T01:03:33;22.52;;;11.15;;
58338;SDS011;68636;52.704;6.536;2023-08-06T01:05:59;24.05;;;10.68;;
58338;SDS011;68636;52.704;6.536;2023-08-06T01:11:24;26.30;;;11.90;;
58338;SDS011;68636;52.704;6.536;2023-08-06T01:13:59;24.45;;;10.77;;
58338;SDS011;68636;52.704;6.536;2023-08-06T01:16:33;24.23;;;11.65;;
58338;SDS011;68636;52.704;6.536;2023-08-06T01:19:00;26.35;;;11.10;;
58338;SDS011;68636;52.704;6.536;2023-08-06T01:21:26;24.67;;;11.57;;
58338;SDS011;68636;52.704;6.536;2023-08-06T01:23:52;26.73;;;11.60;;
58338;SDS011;68636;52.704;6.536;2023-08-06T01:31:39;26.65;;;11.90;;
58338;SDS011;68636;52.704;6.536;2023-08-06T01:34:13;25.73;;;11.35;;
58338;SDS011;68636;52.704;6.536;2023-08-06T01:36:42;29.80;;;11.90;;
58338;SDS011;68636;52.704;6.536;2023-08-06T01:39:09;25.73;;;11.45;;
58338;SDS011;68636;52.704;6.536;2023-08-06T01:41:35;23.48;;;11.02;;
58338;SDS011;68636;52.704;6.536;2023-08-06T01:44:00;25.60;;;12.10;;
58338;SDS011;68636;52.704;6.536;2023-08-06T01:46:26;25.63;;;12.25;;
58338;SDS011;68636;52.704;6.536;2023-08-06T01:48:52;27.55;;;12.65;;
58338;SDS011;68636;52.704;6.536;2023-08-06T01:51:18;24.85;;;12.55;;
58338;SDS011;68636;52.704;6.536;2023-08-06T01:53:43;24.77;;;12.32;;
58338;SDS011;68636;52.704;6.536;2023-08-06T01:56:09;28.45;;;12.43;;
58338;SDS011;68636;52.704;6.536;2023-08-06T01:58:35;26.05;;;11.38;;
58338;SDS011;68636;52.704;6.536;2023-08-06T02:01:01;25.95;;;11.43;;
58338;SDS011;68636;52.704;6.536;2023-08-06T02:03:27;21.23;;;10.90;;
58338;SDS011;68636;52.704;6.536;2023-08-06T02:05:52;24.38;;;11.45;;
58338;SDS011;68636;52.704;6.536;2023-08-06T02:08:18;23.17;;;11.57;;
58338;SDS011;68636;52.704;6.536;2023-08-06T02:10:44;25.95;;;12.25;;
58338;SDS011;68636;52.704;6.536;2023-08-06T02:13:10;24.58;;;11.85;;
58338;SDS011;68636;52.704;6.536;2023-08-06T02:15:41;25.33;;;11.40;;
58338;SDS011;68636;52.704;6.536;2023-08-06T02:18:08;22.75;;;11.40;;
58338;SDS011;68636;52.704;6.536;2023-08-06T02:20:34;23.33;;;11.73;;
58338;SDS011;68636;52.704;6.536;2023-08-06T02:22:59;23.63;;;11.95;;
58338;SDS011;68636;52.704;6.536;2023-08-06T02:25:25;20.88;;;10.98;;
58338;SDS011;68636;52.704;6.536;2023-08-06T02:27:51;25.45;;;12.35;;
58338;SDS011;68636;52.704;6.536;2023-08-06T02:30:17;27.30;;;11.90;;
58338;SDS011;68636;52.704;6.536;2023-08-06T02:32:42;26.42;;;11.40;;
58338;SDS011;68636;52.704;6.536;2023-08-06T02:35:08;29.83;;;11.95;;
58338;SDS011;68636;52.704;6.536;2023-08-06T02:37:34;25.02;;;11.27;;
58338;SDS011;68636;52.704;6.536;2023-08-06T02:40:00;23.73;;;11.25;;
58338;SDS011;68636;52.704;6.536;2023-08-06T02:42:26;21.95;;;11.20;;
58338;SDS011;68636;52.704;6.536;2023-08-06T02:44:52;22.42;;;11.38;;
58338;SDS011;68636;52.704;6.536;2023-08-06T02:47:20;25.80;;;10.80;;
58338;SDS011;68636;52.704;6.536;2023-08-06T02:49:46;24.33;;;11.95;;
58338;SDS011;68636;52.704;6.536;2023-08-06T02:52:12;23.20;;;11.13;;
58338;SDS011;68636;52.704;6.536;2023-08-06T02:54:37;22.20;;;11.32;;
58338;SDS011;68636;52.704;6.536;2023-08-06T02:57:04;21.77;;;11.50;;
58338;SDS011;68636;52.704;6.536;2023-08-06T03:01:56;22.10;;;10.15;;
58338;SDS011;68636;52.704;6.536;2023-08-06T03:04:22;22.95;;;10.77;;
58338;SDS011;68636;52.704;6.536;2023-08-06T03:06:51;24.83;;;11.55;;
58338;SDS011;68636;52.704;6.536;2023-08-06T03:09:17;23.42;;;11.18;;
58338;SDS011;68636;52.704;6.536;2023-08-06T03:11:43;24.60;;;11.52;;
58338;SDS011;68636;52.704;6.536;2023-08-06T03:14:08;23.52;;;11.02;;
58338;SDS011;68636;52.704;6.536;2023-08-06T03:16:34;29.38;;;12.23;;
58338;SDS011;68636;52.704;6.536;2023-08-06T03:19:00;24.50;;;11.00;;
58338;SDS011;68636;52.704;6.536;2023-08-06T03:21:26;23.80;;;10.57;;
58338;SDS011;68636;52.704;6.536;2023-08-06T03:23:52;27.85;;;13.35;;
58338;SDS011;68636;52.704;6.536;2023-08-06T03:26:17;23.52;;;11.10;;
58338;SDS011;68636;52.704;6.536;2023-08-06T03:28:43;25.95;;;10.65;;
58338;SDS011;68636;52.704;6.536;2023-08-06T03:31:09;23.23;;;11.60;;
58338;SDS011;68636;52.704;6.536;2023-08-06T03:33:35;22.52;;;11.27;;
58338;SDS011;68636;52.704;6.536;2023-08-06T03:36:00;21.65;;;11.13;;
58338;SDS011;68636;52.704;6.536;2023-08-06T03:38:26;26.42;;;11.65;;
58338;SDS011;68636;52.704;6.536;2023-08-06T03:40:53;24.13;;;11.23;;
58338;SDS011;68636;52.704;6.536;2023-08-06T03:43:18;23.45;;;11.65;;
58338;SDS011;68636;52.704;6.536;2023-08-06T03:45:44;22.73;;;10.93;;
58338;SDS011;68636;52.704;6.536;2023-08-06T03:48:10;23.55;;;11.80;;
58338;SDS011;68636;52.704;6.536;2023-08-06T03:50:36;28.05;;;11.80;;
58338;SDS011;68636;52.704;6.536;2023-08-06T03:53:03;24.48;;;11.30;;
58338;SDS011;68636;52.704;6.536;2023-08-06T03:55:28;23.98;;;11.40;;
58338;SDS011;68636;52.704;6.536;2023-08-06T03:57:54;23.65;;;11.35;;
58338;SDS011;68636;52.704;6.536;2023-08-06T04:00:20;28.25;;;12.07;;
58338;SDS011;68636;52.704;6.536;2023-08-06T04:02:46;23.17;;;10.85;;
58338;SDS011;68636;52.704;6.536;2023-08-06T04:05:11;24.75;;;11.75;;
58338;SDS011;68636;52.704;6.536;2023-08-06T04:07:37;23.27;;;11.25;;
58338;SDS011;68636;52.704;6.536;2023-08-06T04:10:03;26.23;;;12.48;;
58338;SDS011;68636;52.704;6.536;2023-08-06T04:12:30;28.90;;;12.45;;
58338;SDS011;68636;52.704;6.536;2023-08-06T04:15:00;22.37;;;11.30;;
58338;SDS011;68636;52.704;6.536;2023-08-06T04:17:26;27.50;;;12.27;;
58338;SDS011;68636;52.704;6.536;2023-08-06T04:19:52;25.77;;;12.68;;
58338;SDS011;68636;52.704;6.536;2023-08-06T04:22:19;25.13;;;12.25;;
58338;SDS011;68636;52.704;6.536;2023-08-06T04:24:46;26.17;;;12.00;;
58338;SDS011;68636;52.704;6.536;2023-08-06T04:27:12;26.05;;;11.70;;
58338;SDS011;68636;52.704;6.536;2023-08-06T04:29:39;23.73;;;11.27;;
58338;SDS011;68636;52.704;6.536;2023-08-06T04:32:05;24.23;;;11.75;;
58338;SDS011;68636;52.704;6.536;2023-08-06T04:34:33;27.23;;;12.40;;
58338;SDS011;68636;52.704;6.536;2023-08-06T04:36:59;21.23;;;10.93;;
58338;SDS011;68636;52.704;6.536;2023-08-06T04:39:25;27.15;;;11.48;;
58338;SDS011;68636;52.704;6.536;2023-08-06T04:41:51;24.48;;;11.93;;
58338;SDS011;68636;52.704;6.536;2023-08-06T04:44:17;23.75;;;11.88;;
58338;SDS011;68636;52.704;6.536;2023-08-06T04:46:42;22.98;;;11.50;;
58338;SDS011;68636;52.704;6.536;2023-08-06T04:49:08;23.95;;;12.10;;
58338;SDS011;68636;52.704;6.536;2023-08-06T04:51:34;27.30;;;11.60;;
58338;SDS011;68636;52.704;6.536;2023-08-06T04:54:00;24.08;;;11.48;;
58338;SDS011;68636;52.704;6.536;2023-08-06T04:56:25;27.58;;;11.48;;
58338;SDS011;68636;52.704;6.536;2023-08-06T04:58:51;23.20;;;11.50;;
58338;SDS011;68636;52.704;6.536;2023-08-06T05:01:17;23.90;;;11.70;;
58338;SDS011;68636;52.704;6.536;2023-08-06T05:03:43;24.42;;;12.02;;
58338;SDS011;68636;52.704;6.536;2023-08-06T05:06:08;26.50;;;12.88;;
58338;SDS011;68636;52.704;6.536;2023-08-06T05:08:35;26.45;;;12.35;;
58338;SDS011;68636;52.704;6.536;2023-08-06T05:11:01;21.45;;;11.45;;
58338;SDS011;68636;52.704;6.536;2023-08-06T05:13:27;28.00;;;13.27;;
58338;SDS011;68636;52.704;6.536;2023-08-06T05:15:53;24.67;;;12.02;;
58338;SDS011;68636;52.704;6.536;2023-08-06T05:18:19;22.52;;;12.18;;
58338;SDS011;68636;52.704;6.536;2023-08-06T05:20:45;30.55;;;13.75;;
58338;SDS011;68636;52.704;6.536;2023-08-06T05:23:11;24.50;;;12.15;;
58338;SDS011;68636;52.704;6.536;2023-08-06T05:25:37;24.63;;;12.55;;
58338;SDS011;68636;52.704;6.536;2023-08-06T05:28:03;27.65;;;13.20;;
58338;SDS011;68636;52.704;6.536;2023-08-06T05:30:29;32.20;;;13.83;;
58338;SDS011;68636;52.704;6.536;2023-08-06T05:32:55;26.42;;;13.00;;
58338;SDS011;68636;52.704;6.536;2023-08-06T05:35:21;25.00;;;13.48;;
58338;SDS011;68636;52.704;6.536;2023-08-06T05:37:48;24.23;;;12.65;;
58338;SDS011;68636;52.704;6.536;2023-08-06T05:42:40;26.57;;;11.73;;
58338;SDS011;68636;52.704;6.536;2023-08-06T05:45:06;27.35;;;13.50;;
58338;SDS011;68636;52.704;6.536;2023-08-06T05:47:33;26.40;;;13.55;;
58338;SDS011;68636;52.704;6.536;2023-08-06T05:49:58;24.42;;;12.70;;
58338;SDS011;68636;52.704;6.536;2023-08-06T05:52:24;28.55;;;13.82;;
58338;SDS011;68636;52.704;6.536;2023-08-06T05:54:50;26.35;;;13.98;;
58338;SDS011;68636;52.704;6.536;2023-08-06T05:57:16;29.48;;;13.45;;
58338;SDS011;68636;52.704;6.536;2023-08-06T05:59:42;26.10;;;13.73;;
58338;SDS011;68636;52.704;6.536;2023-08-06T06:02:08;26.38;;;13.65;;
58338;SDS011;68636;52.704;6.536;2023-08-06T06:04:34;27.60;;;13.15;;
58338;SDS011;68636;52.704;6.536;2023-08-06T06:06:59;24.30;;;12.45;;
58338;SDS011;68636;52.704;6.536;2023-08-06T06:09:25;27.23;;;13.40;;
58338;SDS011;68636;52.704;6.536;2023-08-06T06:11:51;24.15;;;12.95;;
58338;SDS011;68636;52.704;6.536;2023-08-06T06:14:17;28.02;;;13.45;;
58338;SDS011;68636;52.704;6.536;2023-08-06T06:16:43;28.60;;;13.15;;
58338;SDS011;68636;52.704;6.536;2023-08-06T06:19:09;24.75;;;13.05;;
58338;SDS011;68636;52.704;6.536;2023-08-06T06:21:35;26.70;;;14.25;;
58338;SDS011;68636;52.704;6.536;2023-08-06T06:24:01;26.73;;;13.40;;
58338;SDS011;68636;52.704;6.536;2023-08-06T06:26:27;28.73;;;13.45;;
58338;SDS011;68636;52.704;6.536;2023-08-06T06:28:53;28.38;;;14.45;;
58338;SDS011;68636;52.704;6.536;2023-08-06T06:31:19;29.08;;;14.88;;
58338;SDS011;68636;52.704;6.536;2023-08-06T06:33:45;28.25;;;14.65;;
58338;SDS011;68636;52.704;6.536;2023-08-06T06:36:10;31.67;;;14.70;;
58338;SDS011;68636;52.704;6.536;2023-08-06T06:38:36;35.75;;;14.85;;
58338;SDS011;68636;52.704;6.536;2023-08-06T06:41:02;26.23;;;13.55;;
58338;SDS011;68636;52.704;6.536;2023-08-06T06:43:28;26.30;;;15.13;;
58338;SDS011;68636;52.704;6.536;2023-08-06T06:45:57;31.48;;;15.30;;
58338;SDS011;68636;52.704;6.536;2023-08-06T06:48:27;31.60;;;15.57;;
58338;SDS011;68636;52.704;6.536;2023-08-06T06:50:54;32.03;;;16.02;;
58338;SDS011;68636;52.704;6.536;2023-08-06T06:53:20;27.60;;;16.13;;
58338;SDS011;68636;52.704;6.536;2023-08-06T06:55:48;32.00;;;16.45;;
58338;SDS011;68636;52.704;6.536;2023-08-06T06:58:15;33.72;;;16.80;;
58338;SDS011;68636;52.704;6.536;2023-08-06T07:00:41;34.58;;;17.67;;
58338;SDS011;68636;52.704;6.536;2023-08-06T07:03:07;32.67;;;16.85;;
58338;SDS011;68636;52.704;6.536;2023-08-06T07:05:32;31.73;;;17.80;;
58338;SDS011;68636;52.704;6.536;2023-08-06T07:07:58;31.35;;;17.50;;
58338;SDS011;68636;52.704;6.536;2023-08-06T07:10:25;31.63;;;16.65;;
58338;SDS011;68636;52.704;6.536;2023-08-06T07:12:51;30.88;;;16.40;;
58338;SDS011;68636;52.704;6.536;2023-08-06T07:15:17;27.77;;;16.30;;
58338;SDS011;68636;52.704;6.536;2023-08-06T07:17:43;31.60;;;16.75;;
58338;SDS011;68636;52.704;6.536;2023-08-06T07:20:09;31.80;;;15.80;;
58338;SDS011;68636;52.704;6.536;2023-08-06T07:22:35;34.75;;;17.33;;
58338;SDS011;68636;52.704;6.536;2023-08-06T07:25:01;32.33;;;16.80;;
58338;SDS011;68636;52.704;6.536;2023-08-06T07:27:27;31.75;;;17.33;;
58338;SDS011;68636;52.704;6.536;2023-08-06T07:29:52;33.30;;;17.08;;
58338;SDS011;68636;52.704;6.536;2023-08-06T07:32:18;34.38;;;17.95;;
58338;SDS011;68636;52.704;6.536;2023-08-06T07:34:44;30.83;;;16.23;;
58338;SDS011;68636;52.704;6.536;2023-08-06T07:37:09;32.08;;;16.77;;
58338;SDS011;68636;52.704;6.536;2023-08-06T07:39:35;33.63;;;18.20;;
58338;SDS011;68636;52.704;6.536;2023-08-06T07:42:03;35.22;;;17.52;;
58338;SDS011;68636;52.704;6.536;2023-08-06T07:44:30;36.85;;;20.48;;
58338;SDS011;68636;52.704;6.536;2023-08-06T07:46:56;37.50;;;18.30;;
58338;SDS011;68636;52.704;6.536;2023-08-06T07:49:22;40.35;;;18.80;;
58338;SDS011;68636;52.704;6.536;2023-08-06T07:51:48;33.47;;;17.70;;
58338;SDS011;68636;52.704;6.536;2023-08-06T07:54:14;35.70;;;18.98;;
58338;SDS011;68636;52.704;6.536;2023-08-06T07:56:39;38.45;;;18.05;;
58338;SDS011;68636;52.704;6.536;2023-08-06T07:59:05;35.58;;;18.50;;
58338;SDS011;68636;52.704;6.536;2023-08-06T08:01:31;37.05;;;17.73;;
58338;SDS011;68636;52.704;6.536;2023-08-06T08:03:57;33.38;;;17.65;;
58338;SDS011;68636;52.704;6.536;2023-08-06T08:06:22;28.83;;;15.37;;
58338;SDS011;68636;52.704;6.536;2023-08-06T08:08:48;29.85;;;15.77;;
58338;SDS011;68636;52.704;6.536;2023-08-06T08:11:14;31.83;;;17.33;;
58338;SDS011;68636;52.704;6.536;2023-08-06T08:13:41;29.70;;;16.23;;
58338;SDS011;68636;52.704;6.536;2023-08-06T08:16:07;31.15;;;15.88;;
58338;SDS011;68636;52.704;6.536;2023-08-06T08:18:32;28.58;;;14.57;;
58338;SDS011;68636;52.704;6.536;2023-08-06T08:20:58;29.53;;;14.93;;
58338;SDS011;68636;52.704;6.536;2023-08-06T08:23:24;25.60;;;13.87;;
58338;SDS011;68636;52.704;6.536;2023-08-06T08:25:50;27.23;;;14.90;;
58338;SDS011;68636;52.704;6.536;2023-08-06T08:28:16;31.30;;;14.43;;
58338;SDS011;68636;52.704;6.536;2023-08-06T08:30:42;24.70;;;14.35;;
58338;SDS011;68636;52.704;6.536;2023-08-06T08:33:07;25.38;;;13.38;;
58338;SDS011;68636;52.704;6.536;2023-08-06T08:35:33;27.40;;;14.80;;
58338;SDS011;68636;52.704;6.536;2023-08-06T08:38:01;25.73;;;13.77;;
58338;SDS011;68636;52.704;6.536;2023-08-06T08:40:28;22.05;;;12.57;;
58338;SDS011;68636;52.704;6.536;2023-08-06T08:42:57;24.58;;;13.95;;
58338;SDS011;68636;52.704;6.536;2023-08-06T08:47:51;24.75;;;13.32;;
58338;SDS011;68636;52.704;6.536;2023-08-06T08:50:17;22.63;;;12.52;;
58338;SDS011;68636;52.704;6.536;2023-08-06T08:52:44;26.90;;;13.88;;
58338;SDS011;68636;52.704;6.536;2023-08-06T08:55:11;22.57;;;12.50;;
58338;SDS011;68636;52.704;6.536;2023-08-06T08:57:39;23.50;;;12.75;;
58338;SDS011;68636;52.704;6.536;2023-08-06T09:00:05;23.33;;;13.13;;
58338;SDS011;68636;52.704;6.536;2023-08-06T09:02:32;22.00;;;12.13;;
58338;SDS011;68636;52.704;6.536;2023-08-06T09:04:59;22.02;;;12.40;;
58338;SDS011;68636;52.704;6.536;2023-08-06T09:07:32;23.58;;;12.85;;
58338;SDS011;68636;52.704;6.536;2023-08-06T09:10:02;22.85;;;12.90;;
58338;SDS011;68636;52.704;6.536;2023-08-06T09:12:31;26.02;;;12.85;;
58338;SDS011;68636;52.704;6.536;2023-08-06T09:14:57;23.40;;;11.63;;
58338;SDS011;68636;52.704;6.536;2023-08-06T09:17:23;19.00;;;11.60;;
58338;SDS011;68636;52.704;6.536;2023-08-06T09:19:49;21.50;;;10.87;;
58338;SDS011;68636;52.704;6.536;2023-08-06T09:22:15;21.47;;;11.87;;
58338;SDS011;68636;52.704;6.536;2023-08-06T09:24:41;21.30;;;11.30;;
58338;SDS011;68636;52.704;6.536;2023-08-06T09:27:11;21.73;;;10.27;;
58338;SDS011;68636;52.704;6.536;2023-08-06T09:29:40;18.75;;;10.77;;
58338;SDS011;68636;52.704;6.536;2023-08-06T09:32:10;19.02;;;10.18;;
58338;SDS011;68636;52.704;6.536;2023-08-06T09:34:42;17.52;;;9.80;;
58338;SDS011;68636;52.704;6.536;2023-08-06T09:37:09;18.15;;;10.00;;
58338;SDS011;68636;52.704;6.536;2023-08-06T09:39:38;19.38;;;10.00;;
58338;SDS011;68636;52.704;6.536;2023-08-06T09:42:08;20.60;;;9.95;;
58338;SDS011;68636;52.704;6.536;2023-08-06T09:44:33;16.57;;;9.93;;
58338;SDS011;68636;52.704;6.536;2023-08-06T09:47:03;19.20;;;9.73;;
58338;SDS011;68636;52.704;6.536;2023-08-06T09:51:58;17.73;;;9.88;;
58338;SDS011;68636;52.704;6.536;2023-08-06T09:54:25;17.17;;;9.00;;
58338;SDS011;68636;52.704;6.536;2023-08-06T09:56:52;15.32;;;9.15;;
58338;SDS011;68636;52.704;6.536;2023-08-06T09:59:19;16.90;;;10.05;;
58338;SDS011;68636;52.704;6.536;2023-08-06T10:01:45;15.80;;;8.68;;
58338;SDS011;68636;52.704;6.536;2023-08-06T10:04:13;17.65;;;9.98;;
58338;SDS011;68636;52.704;6.536;2023-08-06T10:06:43;17.52;;;9.77;;
58338;SDS011;68636;52.704;6.536;2023-08-06T10:09:12;18.70;;;11.70;;
58338;SDS011;68636;52.704;6.536;2023-08-06T10:11:38;22.23;;;10.37;;
58338;SDS011;68636;52.704;6.536;2023-08-06T10:14:11;19.35;;;10.65;;
58338;SDS011;68636;52.704;6.536;2023-08-06T10:16:41;17.50;;;10.25;;
58338;SDS011;68636;52.704;6.536;2023-08-06T10:19:09;21.38;;;11.23;;
58338;SDS011;68636;52.704;6.536;2023-08-06T10:21:38;18.88;;;10.40;;
58338;SDS011;68636;52.704;6.536;2023-08-06T10:24:03;18.27;;;11.32;;
58338;SDS011;68636;52.704;6.536;2023-08-06T10:26:34;18.83;;;10.90;;
58338;SDS011;68636;52.704;6.536;2023-08-06T10:29:00;17.73;;;11.27;;
58338;SDS011;68636;52.704;6.536;2023-08-06T10:34:55;18.15;;;9.73;;
58338;SDS011;68636;52.704;6.536;2023-08-06T10:37:22;18.65;;;10.35;;
58338;SDS011;68636;52.704;6.536;2023-08-06T10:39:49;17.92;;;10.00;;
58338;SDS011;68636;52.704;6.536;2023-08-06T10:42:22;15.85;;;9.68;;
58338;SDS011;68636;52.704;6.536;2023-08-06T10:45:11;17.85;;;9.35;;
58338;SDS011;68636;52.704;6.536;2023-08-06T10:47:41;16.65;;;9.15;;
58338;SDS011;68636;52.704;6.536;2023-08-06T10:52:35;18.58;;;9.70;;
58338;SDS011;68636;52.704;6.536;2023-08-06T10:55:01;15.50;;;9.17;;
58338;SDS011;68636;52.704;6.536;2023-08-06T10:57:27;18.53;;;9.83;;
58338;SDS011;68636;52.704;6.536;2023-08-06T10:59:53;14.87;;;10.03;;
58338;SDS011;68636;52.704;6.536;2023-08-06T11:02:18;17.23;;;9.10;;
58338;SDS011;68636;52.704;6.536;2023-08-06T11:04:44;14.40;;;8.97;;
58338;SDS011;68636;52.704;6.536;2023-08-06T11:07:10;16.77;;;9.67;;
58338;SDS011;68636;52.704;6.536;2023-08-06T11:09:36;14.53;;;8.30;;
58338;SDS011;68636;52.704;6.536;2023-08-06T11:12:02;17.98;;;9.27;;
58338;SDS011;68636;52.704;6.536;2023-08-06T11:14:35;16.00;;;9.90;;
58338;SDS011;68636;52.704;6.536;2023-08-06T11:17:01;14.50;;;8.30;;
58338;SDS011;68636;52.704;6.536;2023-08-06T11:19:27;15.90;;;8.50;;
58338;SDS011;68636;52.704;6.536;2023-08-06T11:21:52;13.30;;;8.03;;
58338;SDS011;68636;52.704;6.536;2023-08-06T11:24:19;12.70;;;7.40;;
58338;SDS011;68636;52.704;6.536;2023-08-06T11:26:45;14.07;;;8.20;;
58338;SDS011;68636;52.704;6.536;2023-08-06T11:29:11;13.83;;;7.80;;
58338;SDS011;68636;52.704;6.536;2023-08-06T11:31:36;15.03;;;7.80;;
58338;SDS011;68636;52.704;6.536;2023-08-06T11:34:04;15.02;;;7.82;;
58338;SDS011;68636;52.704;6.536;2023-08-06T11:36:33;14.83;;;7.83;;
58338;SDS011;68636;52.704;6.536;2023-08-06T11:39:02;14.90;;;7.82;;
58338;SDS011;68636;52.704;6.536;2023-08-06T11:41:30;11.95;;;6.43;;
58338;SDS011;68636;52.704;6.536;2023-08-06T11:43:57;12.55;;;6.70;;
58338;SDS011;68636;52.704;6.536;2023-08-06T11:46:26;11.45;;;7.05;;
58338;SDS011;68636;52.704;6.536;2023-08-06T11:51:18;10.77;;;6.97;;
58338;SDS011;68636;52.704;6.536;2023-08-06T11:53:48;11.30;;;7.47;;
58338;SDS011;68636;52.704;6.536;2023-08-06T11:56:14;11.50;;;6.50;;
58338;SDS011;68636;52.704;6.536;2023-08-06T11:58:41;13.65;;;7.40;;
58338;SDS011;68636;52.704;6.536;2023-08-06T12:01:07;13.85;;;6.75;;
58338;SDS011;68636;52.704;6.536;2023-08-06T12:03:38;10.53;;;4.67;;
58338;SDS011;68636;52.704;6.536;2023-08-06T12:06:07;11.50;;;5.97;;
58338;SDS011;68636;52.704;6.536;2023-08-06T12:08:33;11.07;;;4.63;;
58338;SDS011;68636;52.704;6.536;2023-08-06T12:10:59;10.13;;;4.97;;
58338;SDS011;68636;52.704;6.536;2023-08-06T12:13:25;10.13;;;5.68;;
58338;SDS011;68636;52.704;6.536;2023-08-06T12:15:50;12.80;;;5.50;;
58338;SDS011;68636;52.704;6.536;2023-08-06T12:18:18;12.70;;;5.35;;
58338;SDS011;68636;52.704;6.536;2023-08-06T12:20:44;9.63;;;5.80;;
58338;SDS011;68636;52.704;6.536;2023-08-06T12:23:10;10.87;;;5.03;;
58338;SDS011;68636;52.704;6.536;2023-08-06T12:25:40;9.95;;;4.97;;
58338;SDS011;68636;52.704;6.536;2023-08-06T12:28:06;10.13;;;5.32;;
58338;SDS011;68636;52.704;6.536;2023-08-06T12:30:33;8.55;;;5.20;;
58338;SDS011;68636;52.704;6.536;2023-08-06T12:32:59;9.50;;;4.70;;
58338;SDS011;68636;52.704;6.536;2023-08-06T12:35:25;10.90;;;4.73;;
58338;SDS011;68636;52.704;6.536;2023-08-06T12:37:51;8.75;;;4.72;;
58338;SDS011;68636;52.704;6.536;2023-08-06T12:40:19;11.95;;;4.10;;
58338;SDS011;68636;52.704;6.536;2023-08-06T12:42:45;8.38;;;4.13;;
58338;SDS011;68636;52.704;6.536;2023-08-06T12:45:11;11.73;;;4.03;;
58338;SDS011;68636;52.704;6.536;2023-08-06T12:47:37;8.83;;;3.70;;
58338;SDS011;68636;52.704;6.536;2023-08-06T12:50:03;9.17;;;3.43;;
58338;SDS011;68636;52.704;6.536;2023-08-06T12:52:29;7.78;;;3.65;;
58338;SDS011;68636;52.704;6.536;2023-08-06T12:54:54;11.20;;;4.07;;
58338;SDS011;68636;52.704;6.536;2023-08-06T12:57:20;14.17;;;4.60;;
58338;SDS011;68636;52.704;6.536;2023-08-06T12:59:46;16.70;;;4.67;;
58338;SDS011;68636;52.704;6.536;2023-08-06T13:04:38;9.67;;;3.80;;
58338;SDS011;68636;52.704;6.536;2023-08-06T13:07:05;9.13;;;3.75;;
58338;SDS011;68636;52.704;6.536;2023-08-06T13:09:31;13.38;;;4.30;;
58338;SDS011;68636;52.704;6.536;2023-08-06T13:11:57;10.18;;;4.00;;
58338;SDS011;68636;52.704;6.536;2023-08-06T13:14:25;10.07;;;4.40;;
58338;SDS011;68636;52.704;6.536;2023-08-06T13:16:50;14.63;;;4.53;;
58338;SDS011;68636;52.704;6.536;2023-08-06T13:19:16;10.00;;;4.83;;
58338;SDS011;68636;52.704;6.536;2023-08-06T13:24:17;8.90;;;4.25;;
58338;SDS011;68636;52.704;6.536;2023-08-06T13:26:44;9.88;;;5.00;;
58338;SDS011;68636;52.704;6.536;2023-08-06T13:29:10;9.10;;;4.40;;
58338;SDS011;68636;52.704;6.536;2023-08-06T13:31:36;8.77;;;4.50;;
58338;SDS011;68636;52.704;6.536;2023-08-06T13:34:02;8.95;;;4.20;;
58338;SDS011;68636;52.704;6.536;2023-08-06T13:36:28;10.40;;;5.37;;
58338;SDS011;68636;52.704;6.536;2023-08-06T13:38:54;10.07;;;5.10;;
58338;SDS011;68636;52.704;6.536;2023-08-06T13:41:20;9.57;;;4.90;;
58338;SDS011;68636;52.704;6.536;2023-08-06T13:43:47;9.68;;;5.45;;
58338;SDS011;68636;52.704;6.536;2023-08-06T13:46:13;9.45;;;4.70;;
58338;SDS011;68636;52.704;6.536;2023-08-06T13:48:43;8.75;;;4.47;;
58338;SDS011;68636;52.704;6.536;2023-08-06T13:51:10;9.13;;;4.75;;
58338;SDS011;68636;52.704;6.536;2023-08-06T13:53:37;11.23;;;4.93;;
58338;SDS011;68636;52.704;6.536;2023-08-06T13:56:04;11.60;;;4.78;;
58338;SDS011;68636;52.704;6.536;2023-08-06T13:58:31;8.27;;;3.78;;
58338;SDS011;68636;52.704;6.536;2023-08-06T14:00:56;9.37;;;4.40;;
58338;SDS011;68636;52.704;6.536;2023-08-06T14:03:23;8.20;;;3.92;;
58338;SDS011;68636;52.704;6.536;2023-08-06T14:05:49;8.70;;;3.90;;
58338;SDS011;68636;52.704;6.536;2023-08-06T14:08:15;9.40;;;4.17;;
58338;SDS011;68636;52.704;6.536;2023-08-06T14:10:43;7.90;;;4.30;;
58338;SDS011;68636;52.704;6.536;2023-08-06T14:13:09;9.23;;;4.18;;
58338;SDS011;68636;52.704;6.536;2023-08-06T14:15:35;8.47;;;4.50;;
58338;SDS011;68636;52.704;6.536;2023-08-06T14:18:01;7.67;;;4.17;;
58338;SDS011;68636;52.704;6.536;2023-08-06T14:20:28;7.57;;;4.00;;
58338;SDS011;68636;52.704;6.536;2023-08-06T14:22:54;8.13;;;4.23;;
58338;SDS011;68636;52.704;6.536;2023-08-06T14:25:19;9.97;;;4.97;;
58338;SDS011;68636;52.704;6.536;2023-08-06T14:27:45;8.73;;;4.57;;
58338;SDS011;68636;52.704;6.536;2023-08-06T14:30:11;11.97;;;4.57;;
58338;SDS011;68636;52.704;6.536;2023-08-06T14:32:37;11.40;;;4.37;;
58338;SDS011;68636;52.704;6.536;2023-08-06T14:35:02;8.87;;;4.70;;
58338;SDS011;68636;52.704;6.536;2023-08-06T14:37:28;9.43;;;5.13;;
58338;SDS011;68636;52.704;6.536;2023-08-06T14:39:54;12.40;;;6.03;;
58338;SDS011;68636;52.704;6.536;2023-08-06T14:42:20;11.77;;;5.80;;
58338;SDS011;68636;52.704;6.536;2023-08-06T14:44:46;15.50;;;7.47;;
58338;SDS011;68636;52.704;6.536;2023-08-06T14:47:12;14.20;;;6.97;;
58338;SDS011;68636;52.704;6.536;2023-08-06T14:49:38;15.63;;;7.23;;
58338;SDS011;68636;52.704;6.536;2023-08-06T14:52:03;16.17;;;8.50;;
58338;SDS011;68636;52.704;6.536;2023-08-06T14:54:30;19.33;;;8.73;;
58338;SDS011;68636;52.704;6.536;2023-08-06T14:56:56;14.97;;;7.57;;